Ana Sayfa
METAR-TAF:

METAR-TAF

Havaalanları :

Türkmenabat, Türkmenistan

Enlem: 39-05-00N, Boylam: 063-36-48E, yükseklik: 192 m

Güncel hava durumu gözlemi

Rapor saat 18:00 UTC de 31 dakika önce yapıldı.
Rüzgar doğu/kuzeydoğudan 2 kt
Sıcaklık 2°C
Nem 69%
Basınç 1023 hPa
Görüş mesafesi 10 km veya daha fazla
1500 m altında bulut yok ve kümülonimbus yok

METAR: UTAV 181800Z 07002KT CAVOK 02/M03 Q1023 NOSIG

Saat: 23:31 (18:31 UTC)

Tahmin

Rapor saat 16:30 UTC de 2 saat ve 1 dakika önce yapıldı.
Ayın 18'si saat 18 UTC'den ayın 19'si saat 18 UTC'ye kadar geçerli Tahmin
Rüzgar kuzeydoğudan 14 kt
Görüş mesafesi 10 km veya daha fazla
1500 m altında bulut yok ve kümülonimbus yok
Geçici
ayın 18'si saat 18 UTC'den ayın 18'si saat 24 UTC'ye kadar
Rüzgar değişken yönden 4 kt
Görüş mesafesi: 3000 m
1000 ft yükseklikte parçalı bulutlu
Pus

TAF: UTAV 181630Z 1818/1918 04014KT CAVOK 530005 TEMPO 1818/1824 VRB04KT 3000 BR SCT010

4.000'den fazla havaalanı için hava durumu gözlemleri ve tahminleri (METAR ve TAF raporları).

Kullanılabilir istasyonlar harita üzerinde sarı ve kırmızı noktalarla gösterilir.

İstasyonun adını görmek için fareyi noktanın üzerinde gezdirin.

Sonrasında hava gözlem ve tahminlerini görmek için tıklayın.

Haritayı değiştirmek için: yaklaştırmak için siyah artı işaretli yeşil düğmeye ve uzaklaştırmak için de eksi işaretli düğmeye hızla tıklayın; bitişik haritalar için yeşil okları kullanın.


METAR-TAF: